Time;durP1;ratioP1;P1;durP2;ratioP2;P2;SDS_P1;SDS_P2;PMS_P1;PMS_P2;Temp;Humidity;BMP_temperature;BMP_pressure;BME280_temperature;BME280_humidity;BME280_pressure;Samples;Min_cycle;Max_cycle;Signal;HPM_P1;HPM_P2
2022/06/11 00:01:10;;;;;;;11.48;5.85;;;;;;;;;;5098230;28;20501;-85
2022/06/11 00:03:36;;;;;;;9.43;5.20;;;;;;;;;;5098245;28;20114;-82
2022/06/11 00:06:03;;;;;;;10.95;4.82;;;;;;;;;;5114828;28;20043;-83
2022/06/11 00:08:29;;;;;;;7.93;4.57;;;;;;;;;;5098305;28;20047;-83
2022/06/11 00:10:55;;;;;;;9.85;4.90;;;;;;;;;;5097860;28;20077;-84
2022/06/11 00:13:22;;;;;;;7.18;4.50;;;;;;;;;;5098190;28;20074;-86
2022/06/11 00:15:49;;;;;;;9.27;5.05;;;;;;;;;;5098667;28;20380;-80
2022/06/11 00:18:15;;;;;;;11.00;5.68;;;;;;;;;;5098491;28;20035;-84
2022/06/11 00:20:41;;;;;;;10.77;5.55;;;;;;;;;;5098468;28;20428;-80
2022/06/11 00:23:07;;;;;;;7.85;4.88;;;;;;;;;;5098381;28;20395;-87
2022/06/11 00:25:34;;;;;;;13.48;4.85;;;;;;;;;;5098651;28;20053;-84
2022/06/11 00:28:01;;;;;;;9.65;4.97;;;;;;;;;;5098269;28;20070;-87
2022/06/11 00:30:27;;;;;;;7.72;4.70;;;;;;;;;;5098680;28;20043;-85
2022/06/11 00:32:55;;;;;;;9.40;5.10;;;;;;;;;;5100148;27;20043;-86
2022/06/11 00:35:21;;;;;;;10.05;5.22;;;;;;;;;;5102520;27;20042;-84
2022/06/11 00:37:47;;;;;;;10.43;5.57;;;;;;;;;;5101804;27;20043;-84
2022/06/11 00:40:18;;;;;;;10.13;5.45;;;;;;;;;;5102469;27;20503;-87
2022/06/11 00:42:50;;;;;;;;;;;;;;;;;;5102530;27;20035;-85
2022/06/11 00:45:26;;;;;;;8.68;4.82;;;;;;;;;;5099963;28;19970;-85
2022/06/11 00:47:59;;;;;;;10.70;4.93;;;;;;;;;;5104495;27;20072;-87
2022/06/11 00:50:38;;;;;;;9.82;4.88;;;;;;;;;;5102506;27;20043;-82
2022/06/11 00:53:06;;;;;;;9.57;4.72;;;;;;;;;;5100032;27;20043;-84
2022/06/11 00:55:36;;;;;;;7.53;4.40;;;;;;;;;;5118909;27;20114;-85
2022/06/11 00:58:05;;;;;;;6.10;4.45;;;;;;;;;;5101960;27;20130;-85
2022/06/11 01:00:33;;;;;;;7.03;4.07;;;;;;;;;;5102136;27;20045;-82
2022/06/11 01:02:59;;;;;;;4.75;3.92;;;;;;;;;;5101597;27;20038;-84
2022/06/11 01:05:28;;;;;;;5.85;3.63;;;;;;;;;;5101626;27;20039;-83
2022/06/11 01:08:14;;;;;;;4.80;2.70;;;;;;;;;;5101397;27;20039;-83
2022/06/11 01:10:40;;;;;;;4.95;2.70;;;;;;;;;;5118673;27;20483;-82
2022/06/11 01:13:30;;;;;;;5.15;2.50;;;;;;;;;;5101503;27;20035;-86
2022/06/11 01:15:59;;;;;;;4.40;3.00;;;;;;;;;;5101670;27;20092;-86
2022/06/11 01:18:43;;;;;;;6.15;2.50;;;;;;;;;;5101627;27;20039;-87
2022/06/11 01:21:21;;;;;;;4.68;2.47;;;;;;;;;;5101192;27;20045;-84
2022/06/11 01:23:59;;;;;;;3.67;2.45;;;;;;;;;;5101422;27;20039;-87
2022/06/11 01:26:45;;;;;;;7.53;2.35;;;;;;;;;;5118708;27;20051;-87
2022/06/11 01:29:11;;;;;;;4.88;2.28;;;;;;;;;;5102828;27;20126;-88
2022/06/11 01:31:46;;;;;;;3.00;2.25;;;;;;;;;;5101717;27;20063;-85
2022/06/11 01:34:32;;;;;;;4.25;1.95;;;;;;;;;;5118184;27;20508;-88
2022/06/11 01:37:03;;;;;;;3.70;2.55;;;;;;;;;;5100955;27;20135;-88
2022/06/11 01:39:33;;;;;;;4.50;2.08;;;;;;;;;;5102044;27;20082;-89
2022/06/11 01:42:02;;;;;;;4.93;1.83;;;;;;;;;;5100709;27;20085;-87
2022/06/11 01:44:33;;;;;;;6.50;1.95;;;;;;;;;;5101295;27;20039;-87
2022/06/11 01:46:59;;;;;;;5.50;1.90;;;;;;;;;;5100770;27;20055;-87
2022/06/11 01:49:25;;;;;;;5.07;2.05;;;;;;;;;;5119796;27;20073;-87
2022/06/11 01:51:58;;;;;;;4.10;1.73;;;;;;;;;;5103093;27;20041;-86
2022/06/11 01:54:37;;;;;;;5.75;2.00;;;;;;;;;;5101708;27;20035;-88
2022/06/11 01:57:24;;;;;;;5.40;1.63;;;;;;;;;;5102004;27;20043;-88
2022/06/11 01:59:56;;;;;;;5.90;2.08;;;;;;;;;;5102084;27;20474;-90
2022/06/11 02:02:31;;;;;;;3.95;2.50;;;;;;;;;;5101172;27;20039;-89
2022/06/11 02:04:57;;;;;;;3.50;2.13;;;;;;;;;;5100902;27;20039;-88
2022/06/11 02:07:30;;;;;;;5.55;2.42;;;;;;;;;;5100144;27;20549;-85
2022/06/11 02:10:09;;;;;;;4.07;2.30;;;;;;;;;;5100583;27;20085;-86
2022/06/11 02:12:44;;;;;;;5.28;2.38;;;;;;;;;;5101293;27;20047;-89
2022/06/11 02:15:25;;;;;;;7.55;2.50;;;;;;;;;;5101845;27;20118;-88
2022/06/11 02:17:53;;;;;;;4.43;2.17;;;;;;;;;;5100649;27;20086;-88
2022/06/11 02:20:21;;;;;;;2.95;2.42;;;;;;;;;;5100353;27;20089;-86
2022/06/11 02:22:56;;;;;;;5.47;2.35;;;;;;;;;;5117257;27;20081;-88
2022/06/11 02:25:30;;;;;;;4.63;2.25;;;;;;;;;;5100994;27;20038;-91
2022/06/11 02:27:58;;;;;;;6.13;2.45;;;;;;;;;;5100564;27;20376;-91
2022/06/11 02:30:26;;;;;;;5.18;2.70;;;;;;;;;;5101765;27;20094;-91
2022/06/11 02:32:53;;;;;;;6.43;2.58;;;;;;;;;;5100987;27;20046;-91
2022/06/11 02:35:38;;;;;;;4.93;2.60;;;;;;;;;;5102252;27;20046;-88
2022/06/11 02:38:05;;;;;;;4.55;2.70;;;;;;;;;;5100965;27;20122;-89
2022/06/11 02:40:40;;;;;;;7.10;2.80;;;;;;;;;;5100587;27;20078;-89
2022/06/11 02:43:07;;;;;;;5.93;2.45;;;;;;;;;;5099786;27;20043;-84
2022/06/11 02:45:33;;;;;;;5.55;2.97;;;;;;;;;;5099958;27;20402;-87
2022/06/11 02:47:59;;;;;;;6.35;3.40;;;;;;;;;;5099295;27;20067;-86
2022/06/11 02:50:29;;;;;;;5.78;3.30;;;;;;;;;;5099690;27;20098;-88
2022/06/11 02:52:56;;;;;;;7.38;3.85;;;;;;;;;;5100819;27;20139;-89
2022/06/11 02:55:22;;;;;;;6.45;3.50;;;;;;;;;;5100263;28;20035;-89
2022/06/11 02:57:49;;;;;;;5.28;3.60;;;;;;;;;;5099605;27;20035;-87
2022/06/11 03:00:16;;;;;;;7.80;4.30;;;;;;;;;;5116827;27;20035;-88
2022/06/11 03:02:45;;;;;;;5.45;3.80;;;;;;;;;;5099449;27;20432;-85
2022/06/11 03:05:11;;;;;;;7.35;4.25;;;;;;;;;;5099653;27;20058;-88
2022/06/11 03:07:37;;;;;;;6.57;4.05;;;;;;;;;;5099407;27;20096;-86
2022/06/11 03:10:04;;;;;;;9.02;4.35;;;;;;;;;;5099876;27;20031;-84
2022/06/11 03:12:30;;;;;;;7.32;4.88;;;;;;;;;;5116464;27;20035;-84
2022/06/11 03:14:56;;;;;;;7.60;4.78;;;;;;;;;;5099533;27;20081;-85
2022/06/11 03:17:23;;;;;;;9.57;5.10;;;;;;;;;;5099203;27;20039;-84
2022/06/11 03:19:49;;;;;;;8.23;5.35;;;;;;;;;;5099068;27;20095;-87
2022/06/11 03:22:17;;;;;;;10.70;5.22;;;;;;;;;;5098911;27;20035;-86
2022/06/11 03:24:43;;;;;;;12.98;5.85;;;;;;;;;;5099403;28;20486;-86
2022/06/11 03:27:10;;;;;;;12.85;5.15;;;;;;;;;;5098834;27;20050;-85
2022/06/11 03:29:36;;;;;;;13.02;5.03;;;;;;;;;;5099166;27;20087;-84
2022/06/11 03:32:03;;;;;;;11.02;4.93;;;;;;;;;;5099340;27;20039;-81
2022/06/11 03:34:29;;;;;;;11.82;5.15;;;;;;;;;;5098757;27;20039;-84
2022/06/11 03:36:57;;;;;;;11.45;4.75;;;;;;;;;;5098896;28;20046;-84
2022/06/11 03:39:23;;;;;;;10.13;4.88;;;;;;;;;;5098788;28;20062;-82
2022/06/11 03:41:49;;;;;;;13.57;6.07;;;;;;;;;;5098544;27;20050;-84
2022/06/11 03:44:15;;;;;;;12.55;5.00;;;;;;;;;;5098713;27;20039;-82
2022/06/11 03:46:42;;;;;;;8.95;4.47;;;;;;;;;;5116012;28;20043;-83
2022/06/11 03:49:08;;;;;;;10.18;5.03;;;;;;;;;;5099109;28;20070;-85
2022/06/11 03:51:34;;;;;;;11.15;5.03;;;;;;;;;;5098965;28;20078;-88
2022/06/11 03:54:00;;;;;;;10.65;4.75;;;;;;;;;;5100108;28;20482;-87
2022/06/11 03:56:26;;;;;;;13.63;5.43;;;;;;;;;;5099541;28;20047;-82
2022/06/11 03:58:53;;;;;;;7.68;4.85;;;;;;;;;;5100446;28;20390;-89
2022/06/11 04:01:19;;;;;;;9.98;5.80;;;;;;;;;;5084121;28;20067;-90
2022/06/11 04:03:45;;;;;;;14.25;5.40;;;;;;;;;;5101636;28;20046;-87
2022/06/11 04:06:12;;;;;;;13.15;5.60;;;;;;;;;;5098486;28;20491;-89
2022/06/11 04:08:38;;;;;;;13.07;5.95;;;;;;;;;;5100500;27;20034;-86
2022/06/11 04:11:05;;;;;;;9.60;6.55;;;;;;;;;;5102134;27;20035;-83
2022/06/11 04:13:32;;;;;;;10.50;6.00;;;;;;;;;;5102588;27;20057;-88
2022/06/11 04:15:59;;;;;;;9.43;6.13;;;;;;;;;;5086180;27;20039;-86
2022/06/11 04:18:36;;;;;;;11.65;6.70;;;;;;;;;;5103047;27;20487;-85
2022/06/11 04:21:03;;;;;;;13.55;5.85;;;;;;;;;;5103194;27;20139;-88
2022/06/11 04:23:30;;;;;;;9.90;6.22;;;;;;;;;;5098512;27;20047;-87
2022/06/11 04:26:01;;;;;;;10.65;6.28;;;;;;;;;;5105463;27;20068;-87
2022/06/11 04:28:28;;;;;;;13.10;6.82;;;;;;;;;;5102663;27;20050;-85
2022/06/11 04:30:54;;;;;;;10.35;6.55;;;;;;;;;;5102168;27;20126;-85
2022/06/11 04:33:20;;;;;;;15.80;7.78;;;;;;;;;;5102183;27;20532;-83
2022/06/11 04:35:47;;;;;;;13.20;6.93;;;;;;;;;;5102023;27;20035;-83
2022/06/11 04:38:13;;;;;;;13.30;7.80;;;;;;;;;;5102317;27;20042;-85
2022/06/11 04:40:39;;;;;;;10.13;7.57;;;;;;;;;;5102010;27;20130;-85
2022/06/11 04:43:05;;;;;;;10.45;7.30;;;;;;;;;;5102134;27;20434;-82
2022/06/11 04:45:31;;;;;;;15.00;7.82;;;;;;;;;;5102053;27;20074;-87
2022/06/11 04:47:57;;;;;;;14.18;7.40;;;;;;;;;;5101855;27;20098;-87
2022/06/11 04:50:23;;;;;;;13.48;7.00;;;;;;;;;;5101920;27;20459;-84
2022/06/11 04:52:49;;;;;;;9.77;7.22;;;;;;;;;;5102137;27;20487;-82
2022/06/11 04:55:16;;;;;;;12.75;7.63;;;;;;;;;;5101776;27;20092;-84
2022/06/11 04:57:43;;;;;;;16.55;7.35;;;;;;;;;;5101796;27;20035;-85
2022/06/11 05:00:11;;;;;;;12.32;7.30;;;;;;;;;;5102041;27;20054;-82
2022/06/11 05:02:37;;;;;;;13.93;7.47;;;;;;;;;;5102090;27;20042;-83
2022/06/11 05:05:03;;;;;;;11.50;6.28;;;;;;;;;;5101723;27;20053;-83
2022/06/11 05:07:29;;;;;;;10.73;6.10;;;;;;;;;;5101622;27;20065;-84
2022/06/11 05:09:55;;;;;;;13.13;5.95;;;;;;;;;;5102347;27;20050;-87
2022/06/11 05:12:21;;;;;;;12.35;5.88;;;;;;;;;;5102247;27;20092;-86
2022/06/11 05:14:47;;;;;;;12.32;5.78;;;;;;;;;;5101600;27;20032;-80
2022/06/11 05:17:13;;;;;;;11.63;5.63;;;;;;;;;;5102554;27;20494;-85
2022/06/11 05:19:39;;;;;;;9.93;4.90;;;;;;;;;;5117968;27;20039;-87
2022/06/11 05:22:05;;;;;;;9.57;5.00;;;;;;;;;;5101686;27;20117;-84
2022/06/11 05:24:31;;;;;;;8.43;5.32;;;;;;;;;;5102073;27;20042;-87
2022/06/11 05:27:06;;;;;;;9.93;4.97;;;;;;;;;;5101193;27;20039;-82
2022/06/11 05:29:47;;;;;;;10.40;4.82;;;;;;;;;;5117224;27;20070;-84
2022/06/11 05:32:14;;;;;;;10.48;3.67;;;;;;;;;;5100699;27;20035;-84
2022/06/11 05:34:41;;;;;;;11.48;4.18;;;;;;;;;;5100553;27;20039;-85
2022/06/11 05:37:07;;;;;;;12.82;4.43;;;;;;;;;;5100814;27;20390;-85
2022/06/11 05:39:33;;;;;;;10.07;4.68;;;;;;;;;;5100912;27;20035;-84
2022/06/11 05:41:59;;;;;;;7.82;4.07;;;;;;;;;;5100721;27;20108;-83
2022/06/11 05:44:25;;;;;;;7.85;3.67;;;;;;;;;;5099970;27;20050;-88
2022/06/11 05:46:52;;;;;;;11.43;4.65;;;;;;;;;;5100189;27;20059;-85
2022/06/11 05:49:20;;;;;;;11.10;4.50;;;;;;;;;;5100349;27;20043;-84
2022/06/11 05:51:49;;;;;;;12.50;5.13;;;;;;;;;;5100428;27;20494;-86
2022/06/11 05:54:17;;;;;;;10.48;4.32;;;;;;;;;;5099813;27;20043;-81
2022/06/11 05:56:43;;;;;;;11.38;3.78;;;;;;;;;;5099947;27;20039;-85
2022/06/11 05:59:11;;;;;;;15.43;4.22;;;;;;;;;;5100152;27;20500;-84
2022/06/11 06:01:39;;;;;;;13.95;3.25;;;;;;;;;;5100477;27;20432;-84
2022/06/11 06:04:05;;;;;;;12.82;4.45;;;;;;;;;;5100132;27;20050;-81
2022/06/11 06:06:31;;;;;;;13.05;5.10;;;;;;;;;;5099172;27;20039;-84
2022/06/11 06:08:57;;;;;;;11.18;4.30;;;;;;;;;;5117185;27;20027;-82
2022/06/11 06:11:23;;;;;;;11.20;4.15;;;;;;;;;;5101101;27;20035;-84
2022/06/11 06:13:50;;;;;;;12.88;3.78;;;;;;;;;;5101266;27;20711;-82
2022/06/11 06:16:17;;;;;;;11.63;4.15;;;;;;;;;;5118175;27;20078;-86
2022/06/11 06:18:43;;;;;;;12.75;3.63;;;;;;;;;;5100755;27;20043;-85
2022/06/11 06:21:10;;;;;;;10.70;3.47;;;;;;;;;;5099358;27;20091;-85
2022/06/11 06:23:36;;;;;;;13.93;4.78;;;;;;;;;;5117877;27;20043;-81
2022/06/11 06:26:03;;;;;;;12.02;4.13;;;;;;;;;;5100590;27;20173;-84
2022/06/11 06:28:31;;;;;;;9.30;3.05;;;;;;;;;;5100809;27;20043;-85
2022/06/11 06:30:58;;;;;;;12.52;4.00;;;;;;;;;;5100131;27;20074;-85
2022/06/11 06:33:25;;;;;;;10.95;3.85;;;;;;;;;;5116941;27;20054;-82
2022/06/11 06:35:51;;;;;;;9.55;3.42;;;;;;;;;;5099484;27;20043;-82
2022/06/11 06:38:18;;;;;;;15.88;3.88;;;;;;;;;;5099033;27;20039;-82
2022/06/11 06:40:44;;;;;;;14.02;3.97;;;;;;;;;;5099909;27;20089;-84
2022/06/11 06:43:13;;;;;;;14.27;4.40;;;;;;;;;;5098825;27;20100;-81
2022/06/11 06:45:39;;;;;;;10.80;3.72;;;;;;;;;;5099610;27;20051;-86
2022/06/11 06:48:05;;;;;;;10.65;3.78;;;;;;;;;;5096859;27;20058;-85
2022/06/11 06:50:31;;;;;;;13.40;4.50;;;;;;;;;;5095437;27;20069;-87
2022/06/11 06:52:57;;;;;;;15.20;4.32;;;;;;;;;;5095145;27;20034;-86
2022/06/11 06:55:24;;;;;;;14.32;4.43;;;;;;;;;;5112579;27;20035;-87
2022/06/11 06:57:50;;;;;;;13.70;4.10;;;;;;;;;;5112472;27;20051;-86
2022/06/11 07:00:17;;;;;;;14.00;4.25;;;;;;;;;;5095560;27;20058;-84
2022/06/11 07:02:44;;;;;;;10.48;3.78;;;;;;;;;;5095207;27;20398;-84
2022/06/11 07:05:10;;;;;;;13.23;3.88;;;;;;;;;;5095442;27;20610;-84
2022/06/11 07:07:37;;;;;;;12.57;4.10;;;;;;;;;;5095009;27;20051;-83
2022/06/11 07:10:04;;;;;;;15.60;3.92;;;;;;;;;;5095170;27;20082;-82
2022/06/11 07:12:30;;;;;;;15.73;4.22;;;;;;;;;;5112474;27;20067;-87
2022/06/11 07:14:57;;;;;;;14.57;4.22;;;;;;;;;;5095706;27;20073;-83
2022/06/11 07:17:23;;;;;;;13.23;4.40;;;;;;;;;;5111743;27;20039;-87
2022/06/11 07:19:51;;;;;;;14.35;4.03;;;;;;;;;;5095637;27;20074;-86
2022/06/11 07:22:23;;;;;;;11.70;3.38;;;;;;;;;;5112405;27;20042;-82
2022/06/11 07:24:49;;;;;;;11.50;4.30;;;;;;;;;;5095014;27;20110;-87
2022/06/11 07:27:17;;;;;;;11.55;3.53;;;;;;;;;;5094916;27;20100;-88
2022/06/11 07:29:55;;;;;;;14.13;3.90;;;;;;;;;;5094900;27;20058;-85
2022/06/11 07:32:23;;;;;;;14.35;3.65;;;;;;;;;;5095005;27;20042;-84
2022/06/11 07:34:49;;;;;;;10.48;4.00;;;;;;;;;;5097280;27;20399;-84
2022/06/11 07:37:16;;;;;;;10.88;3.78;;;;;;;;;;5099606;28;20068;-86
2022/06/11 07:39:43;;;;;;;11.95;3.85;;;;;;;;;;5082309;28;20039;-86
2022/06/11 07:42:10;;;;;;;13.77;4.22;;;;;;;;;;5094461;27;20092;-84
2022/06/11 07:44:36;;;;;;;13.18;3.80;;;;;;;;;;5094653;28;20050;-80
2022/06/11 07:47:03;;;;;;;15.02;4.25;;;;;;;;;;5111673;28;20103;-84
2022/06/11 07:49:29;;;;;;;11.82;4.10;;;;;;;;;;5095101;28;20462;-81
2022/06/11 07:51:55;;;;;;;14.20;4.03;;;;;;;;;;5095231;28;20343;-85
2022/06/11 07:54:21;;;;;;;15.07;4.05;;;;;;;;;;5093915;28;20049;-82
2022/06/11 07:56:47;;;;;;;13.60;3.97;;;;;;;;;;5094876;28;20481;-83
2022/06/11 07:59:13;;;;;;;11.80;4.05;;;;;;;;;;5095215;28;20451;-84
2022/06/11 08:01:39;;;;;;;14.38;4.15;;;;;;;;;;5095166;28;20117;-84
2022/06/11 08:04:05;;;;;;;11.68;3.90;;;;;;;;;;5095423;28;20568;-85
2022/06/11 08:06:32;;;;;;;18.67;4.47;;;;;;;;;;5095040;28;20074;-84
2022/06/11 08:08:58;;;;;;;16.60;4.60;;;;;;;;;;5111818;28;20064;-83
2022/06/11 08:11:24;;;;;;;13.85;4.53;;;;;;;;;;5098617;28;20035;-84
2022/06/11 08:13:50;;;;;;;13.30;3.92;;;;;;;;;;5099260;28;20057;-87
2022/06/11 08:16:16;;;;;;;15.27;4.85;;;;;;;;;;5116045;28;20039;-87
2022/06/11 08:18:44;;;;;;;11.77;4.57;;;;;;;;;;5098781;28;20050;-86
2022/06/11 08:21:10;;;;;;;14.27;4.20;;;;;;;;;;5098995;28;20406;-84
2022/06/11 08:23:36;;;;;;;13.10;4.28;;;;;;;;;;5096871;28;20043;-81
2022/06/11 08:26:02;;;;;;;10.70;4.07;;;;;;;;;;5094354;28;20051;-83
2022/06/11 08:28:28;;;;;;;13.95;4.60;;;;;;;;;;5114003;28;20126;-80
2022/06/11 08:30:54;;;;;;;15.75;4.40;;;;;;;;;;5116572;28;20084;-88
2022/06/11 08:33:21;;;;;;;13.88;4.47;;;;;;;;;;5099124;28;20035;-86
2022/06/11 08:35:47;;;;;;;10.65;3.67;;;;;;;;;;5097957;28;20046;-82
2022/06/11 08:38:13;;;;;;;13.43;4.10;;;;;;;;;;5115126;28;20407;-85
2022/06/11 08:40:42;;;;;;;14.48;3.70;;;;;;;;;;5097806;28;20047;-89
2022/06/11 08:43:16;;;;;;;12.65;4.10;;;;;;;;;;5114684;28;20049;-83
2022/06/11 08:45:45;;;;;;;13.30;3.50;;;;;;;;;;5114312;28;20043;-85
2022/06/11 08:48:34;;;;;;;12.73;3.55;;;;;;;;;;5097354;28;20057;-84
2022/06/11 08:51:19;;;;;;;11.80;3.70;;;;;;;;;;5086599;28;20074;-84
2022/06/11 08:53:46;;;;;;;14.93;4.32;;;;;;;;;;5098128;27;20557;-85
2022/06/11 08:56:36;;;;;;;14.20;4.45;;;;;;;;;;5101072;27;20424;-85
2022/06/11 08:59:05;;;;;;;12.40;3.67;;;;;;;;;;5064646;27;20513;-87
2022/06/11 09:01:31;;;;;;;8.85;3.13;;;;;;;;;;5102027;27;20129;-83
2022/06/11 09:04:16;;;;;;;10.85;3.72;;;;;;;;;;5100843;27;20507;-85
2022/06/11 09:06:42;;;;;;;12.65;3.70;;;;;;;;;;5101914;27;20062;-83
2022/06/11 09:09:16;;;;;;;10.45;4.10;;;;;;;;;;5102263;27;20035;-86
2022/06/11 09:11:59;;;;;;;11.07;3.78;;;;;;;;;;5102408;27;20042;-83
2022/06/11 09:14:26;;;;;;;10.13;3.10;;;;;;;;;;5102088;27;20654;-82
2022/06/11 09:16:55;;;;;;;11.20;3.40;;;;;;;;;;5101260;27;20043;-81
2022/06/11 09:19:21;;;;;;;13.45;4.07;;;;;;;;;;5101256;27;20051;-87
2022/06/11 09:22:07;;;;;;;13.15;3.67;;;;;;;;;;5118144;27;20047;-86
2022/06/11 09:24:46;;;;;;;11.02;3.35;;;;;;;;;;5101005;27;20122;-85
2022/06/11 09:27:24;;;;;;;9.05;3.55;;;;;;;;;;5100998;27;20035;-87
2022/06/11 09:30:11;;;;;;;15.32;3.67;;;;;;;;;;5100852;27;20411;-81
2022/06/11 09:32:57;;;;;;;11.07;3.75;;;;;;;;;;5100599;27;20392;-81
2022/06/11 09:35:29;;;;;;;14.30;4.15;;;;;;;;;;5100645;27;20406;-84
2022/06/11 09:38:10;;;;;;;14.05;3.83;;;;;;;;;;5100594;27;20043;-89
2022/06/11 09:40:41;;;;;;;13.50;3.92;;;;;;;;;;5100641;27;20074;-86
2022/06/11 09:43:10;;;;;;;14.07;3.60;;;;;;;;;;5117270;27;20042;-86
2022/06/11 09:45:40;;;;;;;10.77;3.15;;;;;;;;;;5117390;27;20043;-86
2022/06/11 09:48:21;;;;;;;12.40;3.72;;;;;;;;;;5100165;27;20058;-85
2022/06/11 09:50:53;;;;;;;14.93;4.03;;;;;;;;;;5100891;27;20046;-84
2022/06/11 09:53:33;;;;;;;15.20;3.85;;;;;;;;;;5100514;27;20056;-80
2022/06/11 09:56:14;;;;;;;11.20;2.80;;;;;;;;;;5100314;27;20131;-81
2022/06/11 09:58:43;;;;;;;12.60;3.58;;;;;;;;;;5100479;27;20250;-82
2022/06/11 10:01:15;;;;;;;10.00;3.25;;;;;;;;;;5101320;27;20102;-84
2022/06/11 10:03:41;;;;;;;9.90;2.92;;;;;;;;;;5101049;27;20043;-82
2022/06/11 10:06:16;;;;;;;9.10;3.13;;;;;;;;;;5100602;27;20035;-81
2022/06/11 10:09:01;;;;;;;8.82;2.97;;;;;;;;;;5100191;27;20359;-82
2022/06/11 10:11:37;;;;;;;10.40;2.72;;;;;;;;;;5100099;27;20039;-83
2022/06/11 10:17:00;;;;;;;9.20;2.92;;;;;;;;;;5117558;27;20047;-86
2022/06/11 10:19:44;;;;;;;9.68;2.97;;;;;;;;;;5100711;27;20122;-82
2022/06/11 10:22:20;;;;;;;10.50;3.22;;;;;;;;;;5099615;27;20070;-83
2022/06/11 10:24:52;;;;;;;7.07;2.70;;;;;;;;;;5099999;27;20046;-85
2022/06/11 10:27:20;;;;;;;10.32;2.70;;;;;;;;;;5100427;27;20549;-83
2022/06/11 10:29:48;;;;;;;8.25;2.90;;;;;;;;;;5099907;27;20039;-85
2022/06/11 10:32:18;;;;;;;12.23;3.22;;;;;;;;;;5100121;27;20119;-78
2022/06/11 10:35:00;;;;;;;8.50;2.45;;;;;;;;;;5098752;27;20055;-86
2022/06/11 10:37:45;;;;;;;8.68;3.08;;;;;;;;;;5116807;27;20067;-82
2022/06/11 10:40:33;;;;;;;7.18;2.45;;;;;;;;;;5100338;27;20046;-86
2022/06/11 10:43:15;;;;;;;13.73;3.10;;;;;;;;;;5100008;27;20494;-84
2022/06/11 10:45:47;;;;;;;9.45;2.30;;;;;;;;;;5117095;27;20482;-84
2022/06/11 10:48:30;;;;;;;6.50;2.42;;;;;;;;;;5088642;28;20044;-83
2022/06/11 10:51:00;;;;;;;9.75;2.75;;;;;;;;;;5075968;28;20388;-85
2022/06/11 10:53:40;;;;;;;11.00;2.70;;;;;;;;;;5071495;28;20044;-85
2022/06/11 10:56:12;;;;;;;7.68;2.03;;;;;;;;;;5055281;28;20132;-85
2022/06/11 10:58:43;;;;;;;8.13;2.22;;;;;;;;;;5054639;28;20056;-84
2022/06/11 11:01:20;;;;;;;11.10;2.97;;;;;;;;;;5055080;28;20444;-85
2022/06/11 11:03:48;;;;;;;8.90;2.50;;;;;;;;;;5054426;28;20114;-81
2022/06/11 11:06:29;;;;;;;7.78;1.63;;;;;;;;;;5055041;28;20040;-79
2022/06/11 11:09:04;;;;;;;8.02;1.90;;;;;;;;;;5054523;28;20428;-86
2022/06/11 11:11:46;;;;;;;11.82;2.72;;;;;;;;;;5054297;28;20585;-84
2022/06/11 11:14:15;;;;;;;12.85;3.28;;;;;;;;;;5054376;28;20083;-83
2022/06/11 11:16:47;;;;;;;8.32;2.53;;;;;;;;;;5054928;28;20094;-85
2022/06/11 11:19:16;;;;;;;10.85;2.47;;;;;;;;;;5053353;28;20045;-80
2022/06/11 11:21:57;;;;;;;10.40;2.22;;;;;;;;;;5049991;28;20040;-87
2022/06/11 11:24:41;;;;;;;13.90;2.92;;;;;;;;;;5062659;28;20059;-81
2022/06/11 11:27:14;;;;;;;6.07;2.10;;;;;;;;;;5071658;28;20075;-82
2022/06/11 11:29:41;;;;;;;9.27;2.22;;;;;;;;;;5071668;28;20046;-83
2022/06/11 11:32:39;;;;;;;8.13;2.67;;;;;;;;;;5072166;28;20040;-83
2022/06/11 11:35:18;;;;;;;11.77;2.92;;;;;;;;;;5069472;28;20105;-88
2022/06/11 11:37:45;;;;;;;8.15;2.33;;;;;;;;;;5070940;28;20047;-84
2022/06/11 11:40:28;;;;;;;9.88;2.75;;;;;;;;;;5071331;28;20043;-84
2022/06/11 11:43:09;;;;;;;10.98;2.78;;;;;;;;;;5071981;28;20055;-81
2022/06/11 11:45:50;;;;;;;7.97;2.08;;;;;;;;;;5072469;28;20135;-83
2022/06/11 11:48:20;;;;;;;10.77;2.65;;;;;;;;;;5074421;28;20047;-81
2022/06/11 11:50:50;;;;;;;10.40;3.25;;;;;;;;;;5075529;28;20044;-83
2022/06/11 11:53:25;;;;;;;12.13;2.47;;;;;;;;;;5075016;28;20047;-85
2022/06/11 11:55:57;;;;;;;12.15;2.78;;;;;;;;;;5075205;28;20483;-84
2022/06/11 11:58:29;;;;;;;8.95;3.00;;;;;;;;;;5074978;28;20597;-87
2022/06/11 12:00:59;;;;;;;14.70;3.10;;;;;;;;;;5074418;28;20051;-87
2022/06/11 12:03:35;;;;;;;6.85;2.55;;;;;;;;;;5075192;28;20094;-85
2022/06/11 12:06:02;;;;;;;8.32;2.70;;;;;;;;;;5075152;28;20070;-84
2022/06/11 12:08:30;;;;;;;7.22;2.25;;;;;;;;;;5058153;28;20326;-83
2022/06/11 12:11:08;;;;;;;10.02;2.47;;;;;;;;;;5092094;28;20092;-86
2022/06/11 12:13:42;;;;;;;7.72;3.00;;;;;;;;;;5022124;28;20137;-85
2022/06/11 12:16:11;;;;;;;9.95;2.88;;;;;;;;;;5034551;28;20110;-82
2022/06/11 12:18:42;;;;;;;7.05;2.17;;;;;;;;;;5033316;28;20049;-84
2022/06/11 12:21:16;;;;;;;13.75;3.10;;;;;;;;;;5033642;28;20117;-88
2022/06/11 12:23:46;;;;;;;11.70;3.22;;;;;;;;;;5034246;28;20194;-84
2022/06/11 12:26:13;;;;;;;;;;;;;;;;;;5049649;28;20072;-85
2022/06/11 12:28:41;;;;;;;10.27;2.05;;;;;;;;;;5050662;28;19931;-84
2022/06/11 12:31:09;;;;;;;8.57;3.08;;;;;;;;;;5045901;28;20048;-84
2022/06/11 12:33:36;;;;;;;10.20;3.00;;;;;;;;;;5054344;28;20532;-83
2022/06/11 12:36:12;;;;;;;8.48;2.63;;;;;;;;;;5054160;28;20051;-84
2022/06/11 12:38:38;;;;;;;6.68;1.80;;;;;;;;;;5056626;28;20059;-82
2022/06/11 12:41:25;;;;;;;7.80;3.20;;;;;;;;;;5057196;28;20501;-86
2022/06/11 12:44:04;;;;;;;7.80;2.90;;;;;;;;;;5084955;27;20414;-84
2022/06/11 12:46:35;;;;;;;13.73;2.15;;;;;;;;;;5101811;27;20051;-82
2022/06/11 12:49:07;;;;;;;11.27;2.50;;;;;;;;;;5101955;27;20074;-85
2022/06/11 12:51:39;;;;;;;12.18;2.72;;;;;;;;;;5102209;27;20125;-81
2022/06/11 12:54:08;;;;;;;8.80;2.88;;;;;;;;;;5101251;27;20042;-84
2022/06/11 12:56:53;;;;;;;11.15;3.25;;;;;;;;;;5100516;27;20039;-88
2022/06/11 12:59:35;;;;;;;10.05;3.17;;;;;;;;;;5101443;27;20043;-84
2022/06/11 13:02:19;;;;;;;11.25;2.83;;;;;;;;;;5102576;27;20076;-86
2022/06/11 13:05:14;;;;;;;;;;;;;;;;;;;;;
2022/06/11 13:07:50;;;;;;;10.30;2.30;;;;;;;;;;5119275;27;20101;-85
2022/06/11 13:10:17;;;;;;;9.52;2.95;;;;;;;;;;5101748;27;20053;-84
2022/06/11 13:13:08;;;;;;;8.65;2.67;;;;;;;;;;5100970;27;20039;-84
2022/06/11 13:15:56;;;;;;;3.63;2.10;;;;;;;;;;5101773;27;20047;-88
2022/06/11 13:18:25;;;;;;;6.68;1.92;;;;;;;;;;5100875;27;20074;-83
2022/06/11 13:20:55;;;;;;;8.10;1.95;;;;;;;;;;5100931;27;20047;-85
2022/06/11 13:24:06;;;;;;;5.60;1.52;;;;;;;;;;5117954;27;20088;-84
2022/06/11 13:26:38;;;;;;;5.65;1.90;;;;;;;;;;5116176;27;20047;-86
2022/06/11 13:29:23;;;;;;;8.63;2.88;;;;;;;;;;5118389;27;20071;-83
2022/06/11 13:31:58;;;;;;;12.90;3.15;;;;;;;;;;5101386;27;20039;-83
2022/06/11 13:34:37;;;;;;;7.95;2.70;;;;;;;;;;5100295;27;20082;-84
2022/06/11 13:37:10;;;;;;;8.63;2.72;;;;;;;;;;5093030;28;20083;-87
2022/06/11 13:39:55;;;;;;;9.32;2.17;;;;;;;;;;5075534;28;20064;-82
2022/06/11 13:42:24;;;;;;;7.32;2.17;;;;;;;;;;5076064;28;20087;-85
2022/06/11 13:45:08;;;;;;;7.15;2.00;;;;;;;;;;5076091;28;20044;-82
2022/06/11 13:47:58;;;;;;;10.65;2.42;;;;;;;;;;5076087;28;20557;-83
2022/06/11 13:50:43;;;;;;;4.10;1.43;;;;;;;;;;5076204;28;20142;-84
2022/06/11 13:56:18;;;;;;;9.52;3.55;;;;;;;;;;5075390;28;20578;-82
2022/06/11 13:58:47;;;;;;;7.45;2.10;;;;;;;;;;5092964;28;20096;-80
2022/06/11 14:01:28;;;;;;;10.85;2.28;;;;;;;;;;5075932;28;20051;-82
2022/06/11 14:04:13;;;;;;;10.93;3.22;;;;;;;;;;5076038;28;20032;-86
2022/06/11 14:06:43;;;;;;;11.02;2.78;;;;;;;;;;5091817;28;20076;-83
2022/06/11 14:12:27;;;;;;;8.90;2.25;;;;;;;;;;5092416;28;20083;-85
2022/06/11 14:15:13;;;;;;;9.77;3.08;;;;;;;;;;5102375;27;20053;-80
2022/06/11 14:17:42;;;;;;;7.53;3.15;;;;;;;;;;5085620;27;20051;-86
2022/06/11 14:20:21;;;;;;;9.70;2.47;;;;;;;;;;5100057;27;20442;-82
2022/06/11 14:22:52;;;;;;;5.70;2.13;;;;;;;;;;5099607;27;20054;-83
2022/06/11 14:25:39;;;;;;;11.10;3.25;;;;;;;;;;5116408;27;20047;-81
2022/06/11 14:28:14;;;;;;;9.00;2.38;;;;;;;;;;5103169;27;20487;-86
2022/06/11 14:30:50;;;;;;;9.70;2.95;;;;;;;;;;5100006;27;20080;-82
2022/06/11 14:33:20;;;;;;;7.72;2.70;;;;;;;;;;5100113;27;20094;-84
2022/06/11 14:35:49;;;;;;;6.90;2.58;;;;;;;;;;5117368;27;20089;-82
2022/06/11 14:38:34;;;;;;;7.35;2.40;;;;;;;;;;5099701;27;20043;-83
2022/06/11 14:41:10;;;;;;;10.95;3.15;;;;;;;;;;5117536;27;20384;-82
2022/06/11 14:43:52;;;;;;;6.30;2.05;;;;;;;;;;5116332;27;20043;-85
2022/06/11 14:46:30;;;;;;;8.05;3.33;;;;;;;;;;5099210;27;20407;-83
2022/06/11 14:49:02;;;;;;;8.40;2.80;;;;;;;;;;5099507;27;20416;-87
2022/06/11 14:51:39;;;;;;;5.78;2.58;;;;;;;;;;5100857;27;20096;-84
2022/06/11 14:54:34;;;;;;;7.05;1.92;;;;;;;;;;5098826;27;20073;-85
2022/06/11 14:57:15;;;;;;;11.32;3.10;;;;;;;;;;5098606;27;20163;-85
2022/06/11 14:59:53;;;;;;;9.25;2.95;;;;;;;;;;5098729;27;20050;-83
2022/06/11 15:02:38;;;;;;;11.27;2.67;;;;;;;;;;5098550;27;20091;-84
2022/06/11 15:05:16;;;;;;;10.82;3.53;;;;;;;;;;5115355;27;20043;-83
2022/06/11 15:07:51;;;;;;;8.35;2.38;;;;;;;;;;5098657;27;20101;-85
2022/06/11 15:10:33;;;;;;;12.25;2.25;;;;;;;;;;5099878;27;20050;-85
2022/06/11 15:13:02;;;;;;;11.45;3.22;;;;;;;;;;5098978;27;20042;-83